Ritter, Oregon
Current Conditions -  °F | °C
As of 10:55 PM on Saturday 20 Dec 2014 (Local Time) from KGCD Reporting Station
Moderate Rain Moderate Rain  
Wind Chill: 41°   Ceiling: 5000
Heat Index: 47°   Visibility: 10mi
Dew Point: 42°   Wind: 14mph
Humidity: 84%   Direction: 230°SW
Pressure: 29.8"   Gusts: 21mph
Location:  44.89°N, 119.14°W
Report Text: KGCD 210655Z AUTO 23012G18KT 10SM RA SCT041 OVC050 08/06 A2980 RMK AO2 P0002 T00820056
Loading
Personal Weather Stations






























Interactive Weather Map New forecast layout! Learn more

10-Day Weather Forecast

Advertisements
Track Severe Weather on mobile